createdAt,value
2023-10-23T00:02:21.895Z,2.70
2023-10-23T00:04:50.361Z,2.10
2023-10-23T00:07:18.857Z,2.80
2023-10-23T00:09:47.131Z,1.80
2023-10-23T00:12:15.399Z,2.00
2023-10-23T00:14:43.696Z,2.33
2023-10-23T00:17:13.262Z,2.43
2023-10-23T00:19:42.487Z,2.63
2023-10-23T00:22:10.692Z,2.53
2023-10-23T00:24:39.117Z,2.57
2023-10-23T00:27:07.754Z,2.33
2023-10-23T00:29:35.984Z,2.97
2023-10-23T00:32:04.195Z,3.30
2023-10-23T00:34:33.799Z,2.73
2023-10-23T00:37:02.042Z,1.73
2023-10-23T00:39:30.281Z,2.60
2023-10-23T00:41:58.835Z,2.60
2023-10-23T00:44:28.893Z,2.50
2023-10-23T00:46:57.501Z,2.50
2023-10-23T00:49:25.909Z,2.30
2023-10-23T00:51:55.662Z,2.60
2023-10-23T00:54:24.309Z,2.43
2023-10-23T00:56:52.775Z,3.03
2023-10-23T00:59:21.041Z,2.77
2023-10-23T01:01:49.333Z,3.00
2023-10-23T01:04:18.499Z,2.90
2023-10-23T01:06:47.019Z,3.00
2023-10-23T01:09:16.789Z,2.57
2023-10-23T01:11:45.140Z,4.93
2023-10-23T01:14:13.393Z,2.80
2023-10-23T01:16:42.845Z,2.17
2023-10-23T01:19:11.269Z,2.33
2023-10-23T01:21:39.799Z,2.50
2023-10-23T01:24:08.753Z,3.57
2023-10-23T01:26:38.334Z,2.70
2023-10-23T01:29:06.650Z,2.43
2023-10-23T01:31:34.962Z,2.67
2023-10-23T01:34:03.222Z,3.13
2023-10-23T01:36:31.461Z,2.40
2023-10-23T01:38:59.858Z,2.83
2023-10-23T01:41:28.101Z,3.60
2023-10-23T01:43:57.658Z,2.40
2023-10-23T01:46:25.891Z,2.50
2023-10-23T01:48:54.180Z,2.77
2023-10-23T01:51:22.438Z,2.90
2023-10-23T01:53:50.670Z,1.97
2023-10-23T01:56:18.913Z,2.63
2023-10-23T01:58:47.146Z,2.70
2023-10-23T02:01:23.847Z,3.83
2023-10-23T02:03:52.594Z,2.83
2023-10-23T02:06:20.943Z,2.70
2023-10-23T02:08:54.379Z,3.40
2023-10-23T02:11:22.616Z,3.47
2023-10-23T02:13:51.345Z,2.73
2023-10-23T02:16:19.618Z,2.47
2023-10-23T02:18:49.452Z,2.50
2023-10-23T02:21:17.718Z,2.30
2023-10-23T02:23:56.271Z,2.17
2023-10-23T02:26:25.290Z,2.83
2023-10-23T02:28:53.589Z,2.00
2023-10-23T02:31:21.921Z,3.10
2023-10-23T02:33:51.699Z,4.23
2023-10-23T02:36:20.056Z,2.70
2023-10-23T02:38:48.358Z,2.43
2023-10-23T02:41:16.591Z,2.40
2023-10-23T02:43:44.810Z,2.70
2023-10-23T02:46:13.074Z,2.40
2023-10-23T02:48:43.327Z,2.53
2023-10-23T02:51:12.894Z,1.93
2023-10-23T02:53:41.242Z,2.50
2023-10-23T02:56:12.695Z,3.07
2023-10-23T02:58:41.172Z,3.83
2023-10-23T03:01:20.483Z,2.63
2023-10-23T03:03:48.934Z,2.60
2023-10-23T03:06:18.890Z,2.43
2023-10-23T03:08:47.174Z,2.47
2023-10-23T03:11:15.420Z,2.30
2023-10-23T03:13:43.680Z,2.83
2023-10-23T03:16:11.975Z,3.27
2023-10-23T03:18:40.449Z,2.20
2023-10-23T03:21:08.746Z,2.20
2023-10-23T03:23:38.403Z,2.90
2023-10-23T03:26:06.679Z,3.03
2023-10-23T03:28:34.890Z,2.80
2023-10-23T03:31:04.328Z,3.40
2023-10-23T03:33:33.570Z,2.50
2023-10-23T03:36:02.086Z,1.93
2023-10-23T03:38:30.346Z,1.83
2023-10-23T03:41:00.851Z,2.03
2023-10-23T03:43:29.098Z,2.40
2023-10-23T03:45:57.632Z,2.43
2023-10-23T03:48:25.968Z,2.27
2023-10-23T03:50:54.270Z,2.27
2023-10-23T03:53:22.471Z,2.10
2023-10-23T03:55:50.686Z,2.70
2023-10-23T03:58:20.257Z,2.00
2023-10-23T04:00:48.562Z,2.00
2023-10-23T04:03:16.799Z,2.00
2023-10-23T04:05:45.314Z,1.90
2023-10-23T04:08:13.527Z,1.97
2023-10-23T04:10:47.107Z,2.00
2023-10-23T04:13:15.774Z,2.40
2023-10-23T04:15:53.284Z,2.00
2023-10-23T04:18:21.963Z,2.00
2023-10-23T04:20:50.285Z,2.60
2023-10-23T04:23:19.020Z,2.03
2023-10-23T04:25:56.764Z,1.80
2023-10-23T04:28:25.042Z,2.20
2023-10-23T04:30:54.652Z,1.57
2023-10-23T04:33:24.636Z,1.63
2023-10-23T04:35:53.041Z,2.43
2023-10-23T04:38:21.308Z,2.30
2023-10-23T04:40:51.272Z,1.90
2023-10-23T04:43:19.573Z,3.20
2023-10-23T04:45:49.627Z,4.40
2023-10-23T04:48:19.343Z,2.23
2023-10-23T04:50:47.578Z,2.10
2023-10-23T04:53:15.797Z,2.07
2023-10-23T04:55:44.052Z,1.97
2023-10-23T04:58:12.375Z,1.60
2023-10-23T05:00:41.131Z,2.13
2023-10-23T05:03:10.040Z,1.80
2023-10-23T05:05:39.716Z,2.23
2023-10-23T05:08:07.980Z,1.60
2023-10-23T05:10:39.957Z,1.97
2023-10-23T05:13:08.207Z,2.57
2023-10-23T05:15:36.458Z,2.03
2023-10-23T05:18:04.810Z,2.30
2023-10-23T05:20:36.154Z,1.70
2023-10-23T05:23:05.804Z,2.33
2023-10-23T05:25:34.051Z,2.47
2023-10-23T05:28:02.344Z,2.20
2023-10-23T05:30:30.664Z,2.10
2023-10-23T05:32:58.927Z,2.20
2023-10-23T05:35:27.205Z,2.13
2023-10-23T05:37:55.424Z,1.90
2023-10-23T05:40:25.059Z,2.40
2023-10-23T05:42:53.486Z,2.73
2023-10-23T05:45:21.705Z,2.37
2023-10-23T05:47:49.940Z,1.93
2023-10-23T05:50:18.998Z,2.33
2023-10-23T05:52:47.354Z,2.50
2023-10-23T05:55:15.997Z,2.10
2023-10-23T05:57:48.015Z,2.40
2023-10-23T06:00:16.879Z,2.10
2023-10-23T06:02:45.224Z,2.00
2023-10-23T06:05:13.507Z,3.27
2023-10-23T06:07:42.442Z,2.10
2023-10-23T06:10:11.064Z,2.13
2023-10-23T06:12:39.369Z,2.50
2023-10-23T06:15:11.187Z,2.53
2023-10-23T06:17:39.444Z,1.87
2023-10-23T06:20:08.442Z,2.03
2023-10-23T06:22:37.304Z,2.10
2023-10-23T06:25:05.892Z,2.33
2023-10-23T06:27:34.197Z,2.37
2023-10-23T06:30:04.425Z,2.57
2023-10-23T06:32:36.277Z,2.20
2023-10-23T06:35:05.454Z,2.20
2023-10-23T06:37:34.146Z,2.00
2023-10-23T06:40:02.840Z,2.43
2023-10-23T06:42:31.104Z,3.47
2023-10-23T06:45:00.058Z,2.23
2023-10-23T06:47:28.428Z,2.30
2023-10-23T06:49:58.147Z,2.40
2023-10-23T06:52:26.390Z,2.57
2023-10-23T06:54:57.265Z,2.47
2023-10-23T06:57:25.579Z,3.43
2023-10-23T06:59:55.407Z,3.67
2023-10-23T07:02:23.851Z,3.30
2023-10-23T07:04:52.096Z,2.70
2023-10-23T07:07:29.586Z,2.70
2023-10-23T07:10:00.551Z,2.57
2023-10-23T07:12:29.593Z,3.50
2023-10-23T07:14:57.906Z,3.20
2023-10-23T07:17:26.211Z,3.37
2023-10-23T07:19:54.490Z,3.37
2023-10-23T07:22:24.094Z,2.17
2023-10-23T07:24:52.341Z,3.40
2023-10-23T07:27:20.639Z,4.47
2023-10-23T07:29:48.926Z,3.67
2023-10-23T07:32:17.212Z,3.53
2023-10-23T07:34:45.443Z,3.77
2023-10-23T07:37:19.189Z,3.50
2023-10-23T07:39:49.614Z,3.33
2023-10-23T07:42:18.076Z,4.33
2023-10-23T07:44:46.370Z,4.10
2023-10-23T07:47:15.075Z,4.47
2023-10-23T07:49:43.350Z,4.00
2023-10-23T07:52:12.712Z,3.87
2023-10-23T07:54:41.332Z,4.57
2023-10-23T07:57:10.954Z,4.33
2023-10-23T07:59:41.000Z,4.87
2023-10-23T08:02:09.436Z,4.57
2023-10-23T08:04:38.049Z,4.30
2023-10-23T08:07:06.873Z,4.47
2023-10-23T08:09:36.343Z,3.40
2023-10-23T08:12:04.973Z,3.00
2023-10-23T08:14:34.586Z,3.03
2023-10-23T08:17:02.966Z,4.20
2023-10-23T08:19:31.383Z,3.60
2023-10-23T08:22:00.664Z,4.03
2023-10-23T08:24:29.005Z,4.40
2023-10-23T08:26:57.224Z,4.77
2023-10-23T08:29:25.455Z,4.50
2023-10-23T08:31:55.937Z,3.63
2023-10-23T08:34:24.259Z,3.53
2023-10-23T08:36:53.267Z,3.53
2023-10-23T08:39:21.987Z,3.87
2023-10-23T08:41:50.557Z,3.97
2023-10-23T08:44:18.961Z,3.70
2023-10-23T08:46:46.793Z,2.70
2023-10-23T08:49:18.927Z,3.43
2023-10-23T08:51:50.511Z,3.30
2023-10-23T08:54:19.828Z,3.00
2023-10-23T08:56:50.916Z,3.27
2023-10-23T08:59:19.499Z,2.80
2023-10-23T09:01:47.846Z,2.63
2023-10-23T09:04:17.539Z,3.20
2023-10-23T09:06:46.605Z,3.20
2023-10-23T09:09:14.895Z,3.23
2023-10-23T09:11:45.154Z,2.73
2023-10-23T09:14:14.525Z,3.27
2023-10-23T09:16:42.916Z,3.47
2023-10-23T09:19:11.281Z,3.37
2023-10-23T09:21:41.167Z,3.47
2023-10-23T09:24:10.740Z,2.90
2023-10-23T09:26:38.944Z,3.40
2023-10-23T09:29:10.000Z,3.80
2023-10-23T09:31:38.453Z,3.50
2023-10-23T09:34:06.899Z,3.00
2023-10-23T09:36:35.462Z,3.07
2023-10-23T09:39:05.125Z,3.00
2023-10-23T09:41:33.409Z,3.30
2023-10-23T09:44:03.383Z,3.17
2023-10-23T09:46:31.924Z,2.90
2023-10-23T09:49:04.113Z,3.53
2023-10-23T09:51:38.141Z,3.27
2023-10-23T09:54:13.562Z,2.90
2023-10-23T09:56:42.462Z,2.77
2023-10-23T09:59:12.508Z,3.33
2023-10-23T10:01:42.614Z,2.60
2023-10-23T10:04:15.294Z,3.50
2023-10-23T10:06:48.290Z,2.73
2023-10-23T10:09:18.636Z,2.80
2023-10-23T10:11:47.551Z,3.00
2023-10-23T10:14:16.796Z,3.87
2023-10-23T10:16:45.904Z,3.20
2023-10-23T10:19:14.280Z,3.10
2023-10-23T10:21:47.066Z,2.80
2023-10-23T10:24:16.017Z,3.10
2023-10-23T10:26:45.712Z,2.83
2023-10-23T10:29:13.944Z,3.03
2023-10-23T10:32:00.692Z,2.13
2023-10-23T10:34:31.373Z,4.17
2023-10-23T10:37:03.360Z,3.33
2023-10-23T10:39:55.154Z,4.00
2023-10-23T10:42:25.850Z,2.20
2023-10-23T10:44:54.273Z,2.93
2023-10-23T10:47:22.635Z,3.20
2023-10-23T10:49:53.363Z,3.10
2023-10-23T10:52:29.846Z,2.37
2023-10-23T10:54:58.549Z,3.03
2023-10-23T10:57:28.260Z,2.60
2023-10-23T10:59:57.359Z,3.10
2023-10-23T11:02:25.665Z,2.97
2023-10-23T11:04:56.064Z,2.87
2023-10-23T11:07:27.071Z,2.97
2023-10-23T11:09:59.002Z,2.67
2023-10-23T11:12:31.213Z,2.83
2023-10-23T11:15:03.252Z,2.10
2023-10-23T11:17:31.740Z,2.80
2023-10-23T11:20:00.060Z,2.70
2023-10-23T11:22:28.310Z,3.10
2023-10-23T11:24:56.651Z,2.40
2023-10-23T11:27:24.898Z,2.40
2023-10-23T11:29:54.538Z,1.80
2023-10-23T11:32:22.817Z,2.23
2023-10-23T11:34:51.482Z,1.80
2023-10-23T11:37:20.821Z,2.90
2023-10-23T11:39:50.197Z,2.30
2023-10-23T11:42:18.452Z,1.80
2023-10-23T11:44:47.502Z,2.10
2023-10-23T11:47:17.505Z,2.30
2023-10-23T11:49:51.084Z,1.80
2023-10-23T11:52:19.417Z,1.30
2023-10-23T11:54:47.939Z,2.43
2023-10-23T11:57:20.404Z,2.23
2023-10-23T11:59:50.179Z,1.47
2023-10-23T12:02:19.871Z,1.97
2023-10-23T12:04:48.205Z,2.07
2023-10-23T12:07:16.653Z,2.00
2023-10-23T12:09:46.304Z,2.00
2023-10-23T12:12:14.624Z,1.80
2023-10-23T12:14:42.856Z,1.70
2023-10-23T12:17:11.168Z,2.37
2023-10-23T12:19:40.878Z,2.47
2023-10-23T12:22:09.382Z,2.00
2023-10-23T12:24:37.640Z,2.30
2023-10-23T12:27:05.944Z,2.27
2023-10-23T12:29:34.163Z,2.33
2023-10-23T12:32:03.206Z,2.30
2023-10-23T12:34:34.417Z,2.50
2023-10-23T12:37:05.434Z,3.63
2023-10-23T12:39:33.994Z,2.67
2023-10-23T12:42:02.341Z,3.63
2023-10-23T12:44:31.880Z,2.90
2023-10-23T12:47:00.253Z,3.57
2023-10-23T12:49:28.644Z,3.63
2023-10-23T12:51:56.989Z,3.20
2023-10-23T12:54:26.604Z,3.67
2023-10-23T12:56:55.699Z,2.40
2023-10-23T12:59:23.983Z,3.90
2023-10-23T13:01:52.332Z,3.83
2023-10-23T13:04:22.543Z,4.70
2023-10-23T13:06:51.192Z,4.50
2023-10-23T13:09:19.459Z,4.60
2023-10-23T13:11:49.386Z,5.13
2023-10-23T13:14:17.899Z,3.30
2023-10-23T13:16:49.190Z,4.00
2023-10-23T13:19:21.161Z,4.13
2023-10-23T13:21:54.221Z,4.50
2023-10-23T13:24:24.541Z,5.10
2023-10-23T13:26:56.731Z,4.43
2023-10-23T13:29:26.871Z,3.93
2023-10-23T13:31:56.476Z,4.40
2023-10-23T13:34:27.054Z,3.60
2023-10-23T13:36:57.484Z,3.70
2023-10-23T13:39:28.289Z,4.87
2023-10-23T13:41:59.621Z,3.80
2023-10-23T13:44:29.624Z,4.00
2023-10-23T13:47:05.261Z,3.87
2023-10-23T13:49:36.658Z,4.33
2023-10-23T13:52:07.612Z,4.13
2023-10-23T13:54:35.956Z,3.30
2023-10-23T13:57:06.136Z,4.07
2023-10-23T13:59:34.408Z,3.60
2023-10-23T14:02:02.709Z,4.60
2023-10-23T14:04:31.084Z,4.10
2023-10-23T14:07:00.433Z,4.00
2023-10-23T14:09:43.765Z,2.87
2023-10-23T14:12:16.772Z,3.60
2023-10-23T14:14:45.033Z,3.97
2023-10-23T14:17:13.308Z,4.90
2023-10-23T14:19:48.537Z,4.23
2023-10-23T14:22:17.906Z,3.87
2023-10-23T14:24:46.283Z,3.37
2023-10-23T14:27:14.522Z,3.70
2023-10-23T14:29:44.152Z,3.57
2023-10-23T14:32:12.485Z,3.90
2023-10-23T14:34:40.981Z,3.53
2023-10-23T14:37:09.327Z,3.17
2023-10-23T14:39:38.004Z,4.07
2023-10-23T14:42:07.187Z,3.80
2023-10-23T14:44:36.500Z,3.53
2023-10-23T14:47:06.664Z,3.40
2023-10-23T14:49:36.104Z,2.90
2023-10-23T14:52:04.592Z,3.50
2023-10-23T14:54:32.871Z,3.90
2023-10-23T14:57:01.532Z,3.53
2023-10-23T14:59:31.970Z,3.93
2023-10-23T15:02:00.268Z,4.10
2023-10-23T15:04:30.108Z,4.07
2023-10-23T15:06:58.502Z,4.57
2023-10-23T15:09:26.762Z,3.77
2023-10-23T15:11:55.023Z,3.63
2023-10-23T15:14:23.268Z,3.60
2023-10-23T15:16:51.534Z,4.10
2023-10-23T15:19:19.878Z,4.00
2023-10-23T15:21:49.534Z,3.80
2023-10-23T15:24:18.310Z,4.43
2023-10-23T15:26:46.977Z,3.77
2023-10-23T15:29:15.230Z,3.90
2023-10-23T15:31:43.988Z,4.20
2023-10-23T15:34:12.497Z,3.67
2023-10-23T15:36:40.757Z,4.77
2023-10-23T15:39:10.419Z,3.97
2023-10-23T15:41:38.733Z,4.17
2023-10-23T15:44:07.174Z,4.73
2023-10-23T15:46:35.542Z,4.10
2023-10-23T15:49:03.860Z,4.60
2023-10-23T15:51:32.104Z,4.20
2023-10-23T15:54:00.380Z,4.07
2023-10-23T15:56:30.112Z,3.83
2023-10-23T15:58:59.025Z,4.10
2023-10-23T16:01:27.469Z,4.50
2023-10-23T16:03:55.888Z,4.60
2023-10-23T16:06:24.129Z,5.20
2023-10-23T16:08:52.358Z,4.43
2023-10-23T16:11:21.829Z,4.60
2023-10-23T16:13:51.463Z,4.83
2023-10-23T16:16:21.044Z,4.97
2023-10-23T16:18:49.312Z,7.37
2023-10-23T16:21:17.912Z,4.43
2023-10-23T16:23:46.225Z,4.73
2023-10-23T16:26:14.885Z,4.17
2023-10-23T16:28:43.144Z,3.90
2023-10-23T16:31:16.380Z,3.93
2023-10-23T16:33:44.954Z,4.03
2023-10-23T16:36:13.197Z,3.60
2023-10-23T16:38:41.696Z,2.90
2023-10-23T16:41:09.925Z,3.50
2023-10-23T16:43:41.290Z,4.23
2023-10-23T16:46:12.407Z,3.80
2023-10-23T16:48:43.607Z,4.17
2023-10-23T16:51:11.963Z,4.60
2023-10-23T16:53:40.199Z,3.67
2023-10-23T16:56:08.605Z,6.30
2023-10-23T16:58:36.921Z,4.00
2023-10-23T17:01:07.359Z,4.40
2023-10-23T17:03:38.579Z,3.50
2023-10-23T17:06:10.129Z,4.20
2023-10-23T17:08:38.565Z,4.23
2023-10-23T17:11:07.309Z,4.30
2023-10-23T17:13:35.622Z,4.23
2023-10-23T17:16:04.698Z,4.33
2023-10-23T17:18:33.356Z,3.80
2023-10-23T17:21:03.037Z,4.07
2023-10-23T17:23:35.880Z,4.50
2023-10-23T17:26:04.600Z,3.90
2023-10-23T17:28:32.882Z,3.50
2023-10-23T17:31:02.212Z,4.87
2023-10-23T17:33:31.641Z,4.77
2023-10-23T17:36:00.248Z,4.77
2023-10-23T17:38:28.572Z,4.70
2023-10-23T17:40:59.624Z,4.37
2023-10-23T17:43:27.919Z,4.50
2023-10-23T17:45:56.336Z,5.07
2023-10-23T17:48:25.677Z,4.43
2023-10-23T17:50:55.779Z,5.00
2023-10-23T17:53:24.010Z,3.80
2023-10-23T17:55:52.236Z,4.90
2023-10-23T17:58:25.002Z,4.60
2023-10-23T18:00:53.458Z,4.30
2023-10-23T18:03:22.405Z,4.60
2023-10-23T18:05:57.692Z,4.90
2023-10-23T18:08:25.987Z,4.67
2023-10-23T18:10:54.494Z,3.50
2023-10-23T18:13:24.080Z,4.70
2023-10-23T18:15:52.348Z,4.00
2023-10-23T18:18:20.914Z,5.30
2023-10-23T18:20:49.144Z,4.07
2023-10-23T18:23:17.350Z,4.70
2023-10-23T18:25:47.411Z,5.00
2023-10-23T18:28:15.678Z,4.53
2023-10-23T18:30:45.499Z,4.77
2023-10-23T18:33:14.230Z,4.30
2023-10-23T18:35:42.642Z,5.40
2023-10-23T18:38:11.556Z,4.13
2023-10-23T18:40:41.916Z,3.70
2023-10-23T18:43:10.259Z,5.00
2023-10-23T18:45:38.553Z,5.47
2023-10-23T18:48:08.610Z,5.93
2023-10-23T18:50:36.919Z,4.60
2023-10-23T18:53:05.219Z,4.47
2023-10-23T18:55:33.500Z,3.77
2023-10-23T18:58:01.991Z,3.37
2023-10-23T19:00:30.293Z,3.40
2023-10-23T19:02:58.651Z,4.53
2023-10-23T19:05:28.437Z,4.80
2023-10-23T19:07:56.661Z,4.30
2023-10-23T19:10:25.280Z,3.30
2023-10-23T19:12:53.518Z,3.60
2023-10-23T19:15:21.811Z,3.70
2023-10-23T19:17:51.570Z,3.90
2023-10-23T19:20:20.212Z,3.97
2023-10-23T19:22:49.929Z,3.83
2023-10-23T19:25:18.286Z,3.60
2023-10-23T19:27:46.708Z,3.33
2023-10-23T19:30:15.282Z,4.30
2023-10-23T19:32:43.916Z,4.10
2023-10-23T19:35:13.834Z,3.60
2023-10-23T19:37:42.974Z,3.60
2023-10-23T19:40:13.824Z,3.60
2023-10-23T19:42:42.975Z,3.80
2023-10-23T19:45:11.923Z,4.83
2023-10-23T19:47:40.586Z,5.10
2023-10-23T19:50:10.848Z,4.27
2023-10-23T19:52:39.338Z,4.53
2023-10-23T19:55:43.335Z,3.97
2023-10-23T19:57:58.779Z,4.90
2023-10-23T20:00:27.102Z,4.53
2023-10-23T20:02:55.710Z,4.70
2023-10-23T20:05:28.664Z,4.37
2023-10-23T20:07:57.067Z,4.10
2023-10-23T20:10:26.016Z,4.23
2023-10-23T20:12:54.325Z,3.70
2023-10-23T20:15:27.519Z,4.43
2023-10-23T20:17:56.700Z,4.30
2023-10-23T20:20:26.578Z,4.83
2023-10-23T20:22:54.854Z,4.80
2023-10-23T20:25:23.213Z,5.43
2023-10-23T20:27:51.488Z,4.77
2023-10-23T20:30:19.741Z,3.30
2023-10-23T20:32:49.603Z,4.00
2023-10-23T20:35:17.991Z,4.50
2023-10-23T20:37:46.195Z,3.90
2023-10-23T20:40:14.821Z,5.17
2023-10-23T20:42:43.040Z,5.00
2023-10-23T20:45:13.083Z,5.53
2023-10-23T20:47:41.605Z,4.40
2023-10-23T20:50:11.761Z,5.47
2023-10-23T20:52:40.323Z,4.97
2023-10-23T20:55:08.904Z,4.37
2023-10-23T20:57:37.152Z,4.07
2023-10-23T21:00:07.500Z,3.90
2023-10-23T21:02:35.818Z,3.27
2023-10-23T21:05:05.023Z,4.00
2023-10-23T21:07:34.641Z,3.30
2023-10-23T21:10:03.426Z,4.03
2023-10-23T21:12:31.731Z,3.20
2023-10-23T21:15:00.004Z,4.40
2023-10-23T21:17:28.238Z,3.57
2023-10-23T21:19:56.623Z,3.27
2023-10-23T21:22:24.983Z,3.50
2023-10-23T21:24:54.897Z,3.30
2023-10-23T21:27:24.717Z,3.07
2023-10-23T21:29:53.344Z,3.07
2023-10-23T21:32:21.576Z,5.07
2023-10-23T21:34:50.815Z,2.73
2023-10-23T21:37:19.079Z,3.40
2023-10-23T21:39:47.354Z,4.03
2023-10-23T21:42:16.912Z,3.30
2023-10-23T21:44:45.196Z,3.40
2023-10-23T21:47:14.045Z,3.20
2023-10-23T21:49:42.538Z,2.20
2023-10-23T21:52:12.515Z,2.50
2023-10-23T21:54:41.227Z,3.33
2023-10-23T21:57:20.757Z,1.90
2023-10-23T21:59:53.648Z,2.50
2023-10-23T22:02:22.141Z,2.30
2023-10-23T22:04:50.679Z,2.70
2023-10-23T22:07:19.234Z,2.50
2023-10-23T22:09:50.699Z,2.30
2023-10-23T22:12:19.201Z,2.73
2023-10-23T22:14:47.735Z,2.97
2023-10-23T22:17:17.449Z,2.53
2023-10-23T22:19:45.864Z,3.57
2023-10-23T22:22:14.160Z,2.57
2023-10-23T22:24:42.532Z,2.80
2023-10-23T22:27:10.826Z,3.00
2023-10-23T22:29:39.672Z,2.60
2023-10-23T22:32:08.132Z,2.23
2023-10-23T22:34:37.740Z,2.97
2023-10-23T22:37:58.732Z,2.93
2023-10-23T22:39:54.622Z,2.80
2023-10-23T22:42:23.013Z,3.40
2023-10-23T22:44:51.243Z,4.00
2023-10-23T22:47:19.769Z,2.60
2023-10-23T22:49:49.986Z,3.13
2023-10-23T22:52:18.519Z,3.30
2023-10-23T22:54:47.059Z,3.20
2023-10-23T22:57:17.988Z,2.67
2023-10-23T22:59:46.527Z,2.63
2023-10-23T23:02:15.059Z,2.90
2023-10-23T23:04:43.893Z,2.67
2023-10-23T23:07:14.055Z,2.47
2023-10-23T23:09:42.636Z,2.47
2023-10-23T23:12:11.708Z,3.23
2023-10-23T23:14:40.170Z,2.90
2023-10-23T23:17:08.631Z,3.03
2023-10-23T23:19:37.978Z,2.37
2023-10-23T23:22:08.822Z,2.20
2023-10-23T23:24:38.932Z,2.30
2023-10-23T23:27:07.476Z,2.33
2023-10-23T23:29:35.936Z,1.90
2023-10-23T23:32:04.824Z,2.00
2023-10-23T23:34:33.181Z,2.30
2023-10-23T23:37:01.630Z,2.00
2023-10-23T23:39:29.873Z,2.13
2023-10-23T23:42:01.078Z,1.70
2023-10-23T23:44:29.371Z,2.07
2023-10-23T23:46:57.790Z,1.93
2023-10-23T23:49:28.133Z,1.80
2023-10-23T23:51:56.457Z,1.77
2023-10-23T23:54:24.670Z,1.90
2023-10-23T23:56:53.347Z,2.20
2023-10-23T23:59:22.975Z,1.93
